KTPL/TPL METAR and TAF weather

Enter ICAO airport designator
Station Type Date Time Source
KTPL METAR 2020/08/10 17:51 UTC NOAA

KTPL 101751Z AUTO 20014G23KT 10SM SCT050 36/21 A3005 RMK AO2 PK WND 15026/1735 SLP165 T03560206 10356 20250 58012


Station Type Date Time Source
KTPL Decoded METAR 2020/08/10 17:51 UTC NOAA

Temple, Draughon-Miller Central Texas Regional Airport, TX, United States (KTPL) 31-09N 097-24W
Aug 10, 2020 - 01:51 PM EDT / 2020.08.10 1751 UTC
Wind: from the SSW (200 degrees) at 16 MPH (14 KT) gusting to 26 MPH (23 KT):0
Visibility: 10 mile(s):0
Sky conditions: partly cloudy
Temperature: 96.1 F (35.6 C)
Heat index: 101.7 F (38.7 C):1
Dew Point: 69.1 F (20.6 C)
Relative Humidity: 41%
Pressure (altimeter): 30.05 in. Hg (1017 hPa)
Pressure tendency: 0.04 inches (1.2 hPa) lower than three hours ago
ob: KTPL 101751Z AUTO 20014G23KT 10SM SCT050 36/21 A3005 RMK AO2 PK WND 15026/1735 SLP165 T03560206 10356 20250 58012
cycle: 18

Station Type Date Time Source
KTPL TAF UTC NOAA

Error!

Example: see airport list